Time;durP1;ratioP1;P1;durP2;ratioP2;P2;SDS_P1;SDS_P2;PMS_P1;PMS_P2;Temp;Humidity;BMP_temperature;BMP_pressure;BME280_temperature;BME280_humidity;BME280_pressure;Samples;Min_cycle;Max_cycle;Signal;HPM_P1;HPM_P2
2022/10/16 00:01:08;;;;;;;4.37;3.00;;;16.40;99.90;;;;;;5074660;28;20943;-56
2022/10/16 00:03:35;;;;;;;7.33;2.80;;;16.40;99.90;;;;;;5074324;28;20470;-56
2022/10/16 00:06:04;;;;;;;7.27;2.90;;;16.40;99.90;;;;;;5072767;28;20448;-56
2022/10/16 00:08:32;;;;;;;3.00;2.63;;;16.40;99.90;;;;;;5074680;28;20460;-55
2022/10/16 00:11:03;;;;;;;5.40;2.67;;;16.40;99.90;;;;;;5073595;28;20452;-55
2022/10/16 00:13:31;;;;;;;5.80;2.60;;;16.40;99.90;;;;;;5072360;28;20467;-55
2022/10/16 00:15:59;;;;;;;2.70;2.50;;;;;;;;;;5074342;28;20459;-55
2022/10/16 00:18:26;;;;;;;5.40;2.80;;;16.40;99.90;;;;;;5074537;28;20448;-56
2022/10/16 00:20:54;;;;;;;4.40;2.70;;;16.30;99.90;;;;;;5072008;28;20456;-56
2022/10/16 00:23:23;;;;;;;9.40;2.53;;;16.40;99.90;;;;;;5074377;28;20464;-56
2022/10/16 00:25:57;;;;;;;3.27;2.47;;;16.40;99.90;;;;;;5074297;28;20462;-56
2022/10/16 00:28:24;;;;;;;3.13;2.60;;;16.30;99.90;;;;;;5071679;28;20900;-58
2022/10/16 00:30:51;;;;;;;2.63;2.43;;;16.20;99.90;;;;;;5073674;28;20451;-57
2022/10/16 00:33:19;;;;;;;5.40;3.00;;;16.20;99.90;;;;;;5074551;28;20469;-57
2022/10/16 00:35:46;;;;;;;3.70;2.30;;;16.10;99.90;;;;;;5072221;28;20444;-57
2022/10/16 00:38:13;;;;;;;3.73;3.00;;;16.10;99.90;;;;;;5073742;28;20448;-57
2022/10/16 00:40:42;;;;;;;4.10;2.80;;;16.10;99.90;;;;;;5074027;28;20459;-55
2022/10/16 00:43:15;;;;;;;3.60;2.57;;;16.10;99.90;;;;;;5071169;28;20456;-57
2022/10/16 00:45:42;;;;;;;3.10;2.80;;;16.10;99.90;;;;;;5072518;28;20425;-57
2022/10/16 00:48:14;;;;;;;10.63;3.33;;;16.10;99.90;;;;;;5072957;28;20556;-55
2022/10/16 00:50:43;;;;;;;2.90;2.60;;;16.10;99.90;;;;;;5071330;28;20472;-55
2022/10/16 00:53:12;;;;;;;8.27;2.60;;;16.10;99.90;;;;;;5072835;28;20487;-55
2022/10/16 00:55:41;;;;;;;5.23;2.93;;;16.10;99.90;;;;;;5073193;28;20463;-55
2022/10/16 00:58:08;;;;;;;3.10;2.67;;;16.10;99.90;;;;;;5070429;28;20454;-55
2022/10/16 01:00:35;;;;;;;5.20;2.40;;;16.00;99.90;;;;;;5072821;28;20440;-55
2022/10/16 01:03:03;;;;;;;4.40;2.30;;;16.00;99.90;;;;;;5072936;28;20471;-56
2022/10/16 01:05:40;;;;;;;4.27;2.33;;;16.00;99.90;;;;;;5070581;28;20452;-55
2022/10/16 01:08:14;;;;;;;4.20;2.73;;;16.10;99.90;;;;;;5073596;28;20432;-55
2022/10/16 01:10:50;;;;;;;5.40;2.80;;;16.10;99.90;;;;;;5072461;28;20517;-55
2022/10/16 01:13:22;;;;;;;7.23;2.60;;;16.10;99.90;;;;;;5072271;28;20468;-55
2022/10/16 01:15:56;;;;;;;5.20;2.47;;;16.10;99.90;;;;;;5072532;28;20429;-55
2022/10/16 01:18:31;;;;;;;2.90;2.63;;;16.10;99.90;;;;;;5070411;28;20506;-57
2022/10/16 01:21:03;;;;;;;4.80;2.63;;;16.10;99.90;;;;;;5072845;28;20757;-55
2022/10/16 01:23:42;;;;;;;7.87;2.80;;;16.10;99.90;;;;;;5072366;28;20486;-55
2022/10/16 01:26:21;;;;;;;2.53;2.30;;;16.10;99.90;;;;;;5070150;28;20507;-55
2022/10/16 01:28:55;;;;;;;2.57;2.23;;;16.00;99.90;;;;;;5072562;28;20437;-55
2022/10/16 01:31:26;;;;;;;3.53;2.63;;;16.10;99.90;;;;;;5071833;28;20431;-57
2022/10/16 01:34:00;;;;;;;3.10;2.90;;;16.10;99.90;;;;;;5070826;28;20515;-55
2022/10/16 01:36:32;;;;;;;4.10;2.70;;;16.10;99.90;;;;;;5073316;28;20435;-55
2022/10/16 01:39:02;;;;;;;3.50;2.50;;;16.10;99.90;;;;;;5072633;28;20440;-56
2022/10/16 01:41:35;;;;;;;6.10;3.43;;;16.10;99.90;;;;;;5070753;28;20443;-57
2022/10/16 01:44:07;;;;;;;4.63;2.70;;;16.10;99.90;;;;;;5073059;28;20527;-55
2022/10/16 01:46:37;;;;;;;3.30;2.67;;;16.00;99.90;;;;;;5072430;28;20495;-55
2022/10/16 01:49:05;;;;;;;8.17;2.90;;;16.10;99.90;;;;;;5070368;28;20491;-55
2022/10/16 01:51:36;;;;;;;3.77;2.73;;;16.10;99.90;;;;;;5071375;28;20444;-55
2022/10/16 01:54:05;;;;;;;5.13;2.60;;;16.10;99.90;;;;;;5072939;28;20523;-55
2022/10/16 01:56:33;;;;;;;2.83;2.63;;;16.10;99.90;;;;;;5070545;28;21003;-55
2022/10/16 01:59:03;;;;;;;6.63;2.30;;;16.10;99.90;;;;;;5072622;28;20444;-55
2022/10/16 02:01:34;;;;;;;4.10;3.20;;;16.10;99.90;;;;;;5072777;28;20425;-55
2022/10/16 02:04:09;;;;;;;2.40;2.20;;;16.10;99.90;;;;;;5070640;28;20429;-55
2022/10/16 02:06:36;;;;;;;7.40;2.30;;;16.10;99.90;;;;;;5072116;28;20420;-55
2022/10/16 02:09:04;;;;;;;3.90;2.80;;;16.10;99.90;;;;;;5072460;28;20447;-55
2022/10/16 02:11:31;;;;;;;2.10;2.00;;;16.10;99.90;;;;;;5070490;28;20479;-55
2022/10/16 02:14:03;;;;;;;4.27;2.50;;;16.10;99.90;;;;;;5072189;28;20817;-55
2022/10/16 02:16:39;;;;;;;2.90;2.00;;;16.10;99.90;;;;;;5072828;28;20547;-55
2022/10/16 02:19:07;;;;;;;5.73;2.70;;;16.10;99.90;;;;;;5069922;28;20466;-55
2022/10/16 02:21:41;;;;;;;6.17;2.50;;;16.20;99.90;;;;;;5071577;28;20453;-55
2022/10/16 02:24:13;;;;;;;5.27;2.67;;;16.10;99.90;;;;;;5072104;28;20567;-57
2022/10/16 02:26:55;;;;;;;2.80;2.60;;;16.10;99.90;;;;;;5069846;28;20437;-55
2022/10/16 02:29:25;;;;;;;5.13;2.37;;;16.20;99.90;;;;;;5071460;28;20840;-55
2022/10/16 02:31:59;;;;;;;6.00;2.77;;;16.20;99.90;;;;;;5071618;28;20464;-55
2022/10/16 02:34:28;;;;;;;3.03;2.73;;;16.20;99.90;;;;;;5072453;28;20424;-55
2022/10/16 02:36:55;;;;;;;3.77;2.27;;;16.20;99.90;;;;;;5075666;28;20455;-55
2022/10/16 02:39:23;;;;;;;3.10;2.57;;;16.20;99.90;;;;;;5074714;28;20785;-55
2022/10/16 02:41:50;;;;;;;4.30;2.23;;;16.20;99.90;;;;;;5073303;28;20464;-55
2022/10/16 02:44:17;;;;;;;3.20;2.50;;;16.10;99.90;;;;;;5075119;28;20800;-55
2022/10/16 02:46:44;;;;;;;3.60;2.53;;;16.10;99.90;;;;;;5075457;28;20558;-55
2022/10/16 02:49:13;;;;;;;2.50;2.30;;;16.20;99.90;;;;;;5072882;28;20483;-55
2022/10/16 02:51:40;;;;;;;7.70;2.67;;;16.20;99.90;;;;;;5075697;28;20449;-55
2022/10/16 02:54:07;;;;;;;2.40;2.20;;;16.10;99.90;;;;;;5075355;28;20444;-55
2022/10/16 02:56:34;;;;;;;2.80;2.60;;;16.10;99.90;;;;;;5073178;28;20435;-55
2022/10/16 02:59:01;;;;;;;3.07;2.00;;;16.20;99.90;;;;;;5075312;28;20448;-55
2022/10/16 03:01:28;;;;;;;3.47;3.17;;;16.10;99.90;;;;;;5075200;28;20440;-55
2022/10/16 03:03:55;;;;;;;2.57;2.37;;;16.10;99.90;;;;;;5073671;28;20452;-55
2022/10/16 03:06:24;;;;;;;3.47;2.33;;;16.10;99.90;;;;;;5075675;28;20440;-55
2022/10/16 03:08:51;;;;;;;2.90;2.70;;;16.10;99.90;;;;;;5075622;28;20456;-57
2022/10/16 03:11:18;;;;;;;2.40;2.20;;;16.10;99.90;;;;;;5073165;28;20878;-57
2022/10/16 03:13:45;;;;;;;3.63;2.27;;;16.20;99.90;;;;;;5075744;28;21075;-57
2022/10/16 03:16:13;;;;;;;4.57;3.00;;;16.20;99.90;;;;;;5075706;28;20471;-58
2022/10/16 03:18:40;;;;;;;6.03;2.47;;;16.20;99.90;;;;;;5073344;28;20681;-55
2022/10/16 03:21:07;;;;;;;6.40;2.07;;;16.20;99.90;;;;;;5075581;28;20438;-57
2022/10/16 03:23:35;;;;;;;3.20;2.30;;;16.10;99.90;;;;;;5075206;28;20505;-55
2022/10/16 03:26:03;;;;;;;5.20;2.67;;;16.10;99.90;;;;;;5073823;28;20475;-55
2022/10/16 03:28:30;;;;;;;2.53;1.97;;;16.00;99.90;;;;;;5075691;28;20448;-55
2022/10/16 03:30:57;;;;;;;7.10;2.90;;;16.00;99.90;;;;;;5074869;28;20488;-55
2022/10/16 03:33:24;;;;;;;4.70;2.30;;;16.10;99.90;;;;;;5072821;28;20464;-55
2022/10/16 03:35:54;;;;;;;7.20;2.80;;;16.10;99.90;;;;;;5075447;28;20475;-55
2022/10/16 03:38:22;;;;;;;5.17;3.27;;;16.10;99.90;;;;;;5074046;28;20440;-55
2022/10/16 03:40:50;;;;;;;2.80;2.40;;;16.00;99.90;;;;;;5072899;28;20539;-55
2022/10/16 03:43:17;;;;;;;2.40;2.20;;;16.10;99.90;;;;;;5074590;28;20464;-55
2022/10/16 03:45:45;;;;;;;2.43;1.80;;;16.10;99.90;;;;;;5073031;28;20444;-55
2022/10/16 03:48:12;;;;;;;5.03;2.60;;;16.10;99.90;;;;;;5070331;28;20993;-57
2022/10/16 03:50:39;;;;;;;4.13;2.40;;;;;;;;;;5073322;28;20486;-58
2022/10/16 03:53:06;;;;;;;3.33;2.40;;;16.00;99.90;;;;;;5073883;28;20543;-57
2022/10/16 03:55:34;;;;;;;4.37;2.40;;;16.00;99.90;;;;;;5072333;28;20930;-57
2022/10/16 03:58:02;;;;;;;3.47;2.33;;;15.90;99.90;;;;;;5072291;28;20452;-55
2022/10/16 04:00:29;;;;;;;2.63;2.00;;;15.90;99.90;;;;;;5074177;28;20607;-55
2022/10/16 04:02:56;;;;;;;2.87;2.50;;;15.90;99.90;;;;;;5072027;28;20936;-57
2022/10/16 04:05:23;;;;;;;2.70;2.40;;;15.90;99.90;;;;;;5073806;28;20954;-57
2022/10/16 04:07:51;;;;;;;4.43;2.40;;;15.90;99.90;;;;;;5074366;28;20444;-57
2022/10/16 04:10:18;;;;;;;4.27;2.80;;;15.80;99.90;;;;;;5071789;28;21085;-57
2022/10/16 04:12:45;;;;;;;2.30;2.10;;;15.90;99.90;;;;;;5073220;28;20461;-55
2022/10/16 04:15:14;;;;;;;4.73;2.33;;;15.80;99.90;;;;;;5074481;28;20526;-55
2022/10/16 04:17:41;;;;;;;6.30;2.80;;;15.90;99.90;;;;;;5071980;28;20464;-55
2022/10/16 04:20:09;;;;;;;2.43;2.23;;;15.90;99.90;;;;;;5073376;28;20440;-56
2022/10/16 04:22:36;;;;;;;3.70;2.40;;;15.90;99.90;;;;;;5074207;28;20491;-55
2022/10/16 04:25:04;;;;;;;2.93;2.63;;;15.90;99.90;;;;;;5071409;28;20939;-55
2022/10/16 04:27:31;;;;;;;4.80;2.17;;;15.90;99.90;;;;;;5073987;28;20448;-56
2022/10/16 04:29:58;;;;;;;6.03;2.30;;;15.90;99.90;;;;;;5073027;28;20452;-55
2022/10/16 04:32:27;;;;;;;2.60;2.30;;;15.90;99.90;;;;;;5071618;28;20473;-57
2022/10/16 04:34:54;;;;;;;3.63;2.60;;;15.90;99.90;;;;;;5073644;28;20451;-56
2022/10/16 04:37:25;;;;;;;2.70;2.50;;;15.80;99.90;;;;;;5073278;28;20451;-56
2022/10/16 04:39:53;;;;;;;3.20;2.10;;;15.90;99.90;;;;;;5071098;28;20939;-56
2022/10/16 04:42:20;;;;;;;4.93;2.30;;;15.90;99.90;;;;;;5072757;28;20498;-56
2022/10/16 04:44:48;;;;;;;3.03;2.43;;;15.90;99.90;;;;;;5073222;28;20455;-56
2022/10/16 04:47:15;;;;;;;5.80;2.97;;;15.90;99.90;;;;;;5071836;28;20452;-56
2022/10/16 04:49:43;;;;;;;2.40;2.20;;;15.90;99.90;;;;;;5073664;28;20498;-56
2022/10/16 04:52:11;;;;;;;3.47;2.60;;;15.90;99.90;;;;;;5073562;28;20488;-56
2022/10/16 04:54:38;;;;;;;3.30;2.70;;;15.90;99.90;;;;;;5071336;28;20458;-56
2022/10/16 04:57:05;;;;;;;3.60;2.40;;;15.90;99.90;;;;;;5073150;28;20445;-56
2022/10/16 04:59:32;;;;;;;3.07;2.77;;;15.90;99.90;;;;;;5073980;28;20449;-56
2022/10/16 05:01:59;;;;;;;2.40;2.20;;;15.90;99.90;;;;;;5071782;28;20467;-56
2022/10/16 05:04:26;;;;;;;2.87;2.30;;;15.90;99.90;;;;;;5073884;28;20447;-56
2022/10/16 05:06:55;;;;;;;2.37;1.77;;;15.90;99.90;;;;;;5073910;28;20444;-56
2022/10/16 05:09:22;;;;;;;2.33;2.13;;;16.00;99.90;;;;;;5071906;28;20510;-56
2022/10/16 05:11:49;;;;;;;2.80;2.40;;;16.10;99.90;;;;;;5073162;28;20488;-56
2022/10/16 05:14:16;;;;;;;4.57;2.60;;;16.10;99.90;;;;;;5073702;28;20452;-56
2022/10/16 05:16:43;;;;;;;5.93;2.50;;;16.00;99.90;;;;;;5071692;28;20460;-56
2022/10/16 05:19:10;;;;;;;4.07;2.30;;;16.00;99.90;;;;;;5073323;28;20429;-56
2022/10/16 05:21:37;;;;;;;5.93;2.53;;;16.00;99.90;;;;;;5073542;28;20443;-56
2022/10/16 05:24:06;;;;;;;2.70;2.47;;;15.90;99.90;;;;;;5071815;28;20452;-56
2022/10/16 05:26:33;;;;;;;2.13;1.90;;;15.90;99.90;;;;;;5073346;28;20460;-56
2022/10/16 05:29:00;;;;;;;3.13;2.60;;;16.00;99.90;;;;;;5073411;28;20487;-56
2022/10/16 05:31:27;;;;;;;2.77;1.97;;;16.00;99.90;;;;;;5071013;28;20488;-56
2022/10/16 05:33:59;;;;;;;2.40;2.17;;;16.00;99.90;;;;;;5073252;28;20451;-56
2022/10/16 05:36:27;;;;;;;7.13;2.20;;;16.00;99.90;;;;;;5073343;28;20429;-56
2022/10/16 05:38:54;;;;;;;4.13;2.27;;;16.00;99.90;;;;;;5071403;28;20448;-56
2022/10/16 05:41:25;;;;;;;4.17;2.70;;;16.00;99.90;;;;;;5073257;28;20466;-56
2022/10/16 05:43:52;;;;;;;3.37;2.20;;;16.10;99.90;;;;;;5073118;28;20528;-56
2022/10/16 05:46:20;;;;;;;2.47;2.27;;;16.10;99.90;;;;;;5071884;28;22059;-55
2022/10/16 05:48:47;;;;;;;3.23;2.00;;;16.10;99.90;;;;;;5072864;28;20484;-55
2022/10/16 05:51:16;;;;;;;4.00;2.50;;;16.10;99.90;;;;;;5072406;28;21059;-55
2022/10/16 05:53:43;;;;;;;3.70;2.23;;;16.10;99.90;;;;;;5070392;28;20811;-55
2022/10/16 05:56:11;;;;;;;3.20;2.73;;;16.10;99.90;;;;;;5072173;28;20451;-55
2022/10/16 05:58:41;;;;;;;2.40;2.20;;;16.10;99.90;;;;;;5071522;28;20455;-55
2022/10/16 06:01:11;;;;;;;3.73;2.20;;;16.20;99.90;;;;;;5069659;28;20448;-55
2022/10/16 06:03:38;;;;;;;2.97;2.03;;;16.20;99.90;;;;;;5071935;28;20996;-55
2022/10/16 06:06:10;;;;;;;2.33;2.20;;;16.30;99.90;;;;;;5071819;28;20943;-55
2022/10/16 06:08:37;;;;;;;2.63;2.43;;;16.30;99.90;;;;;;5069206;28;20466;-55
2022/10/16 06:11:05;;;;;;;2.53;2.10;;;16.40;99.90;;;;;;5071786;28;20476;-55
2022/10/16 06:13:32;;;;;;;9.10;2.70;;;16.30;99.90;;;;;;5071818;28;20559;-56
2022/10/16 06:16:03;;;;;;;2.23;2.03;;;16.30;99.90;;;;;;5070057;28;20448;-56
2022/10/16 06:18:30;;;;;;;2.20;2.00;;;16.20;99.90;;;;;;5072082;28;20448;-56
2022/10/16 06:20:58;;;;;;;3.70;2.60;;;16.20;99.90;;;;;;5071395;28;20444;-56
2022/10/16 06:23:26;;;;;;;2.47;2.13;;;16.30;99.90;;;;;;5070848;28;20508;-56
2022/10/16 06:25:53;;;;;;;2.90;2.53;;;;;;;;;;5071995;28;20448;-55
2022/10/16 06:28:20;;;;;;;4.80;2.40;;;16.40;99.90;;;;;;5071542;28;20452;-56
2022/10/16 06:30:47;;;;;;;2.50;2.30;;;16.50;99.90;;;;;;5069407;28;21000;-56
2022/10/16 06:33:16;;;;;;;3.53;2.53;;;16.50;99.90;;;;;;5071110;28;20986;-56
2022/10/16 06:35:43;;;;;;;3.47;1.90;;;16.50;99.90;;;;;;5071603;28;20825;-56
2022/10/16 06:38:10;;;;;;;6.00;2.17;;;16.50;99.90;;;;;;5069444;28;20746;-55
2022/10/16 06:40:37;;;;;;;4.57;2.80;;;16.50;99.90;;;;;;5071299;28;20452;-56
2022/10/16 06:43:04;;;;;;;3.80;2.03;;;16.50;99.90;;;;;;5072296;28;20475;-56
2022/10/16 06:45:31;;;;;;;3.77;2.20;;;16.60;99.90;;;;;;5070953;28;20445;-56
2022/10/16 06:47:59;;;;;;;8.87;2.40;;;16.60;99.90;;;;;;5071743;28;20581;-55
2022/10/16 06:50:27;;;;;;;5.03;2.63;;;16.60;99.90;;;;;;5072765;28;20479;-56
2022/10/16 06:52:54;;;;;;;2.50;2.30;;;16.60;99.90;;;;;;5070767;28;20474;-55
2022/10/16 06:55:22;;;;;;;2.90;2.10;;;16.60;99.90;;;;;;5071789;28;20451;-55
2022/10/16 06:57:49;;;;;;;4.43;2.03;;;16.70;99.90;;;;;;5072125;28;20468;-56
2022/10/16 07:00:16;;;;;;;2.33;1.83;;;16.70;99.90;;;;;;5070305;28;20497;-55
2022/10/16 07:02:43;;;;;;;2.23;2.03;;;16.70;99.90;;;;;;5071792;28;20523;-55
2022/10/16 07:05:11;;;;;;;3.43;2.03;;;16.70;99.90;;;;;;5072188;28;20539;-56
2022/10/16 07:07:39;;;;;;;5.90;3.00;;;16.80;99.90;;;;;;5070964;28;20440;-56
2022/10/16 07:10:07;;;;;;;4.87;2.37;;;16.80;99.90;;;;;;5071978;28;20455;-56
2022/10/16 07:12:34;;;;;;;2.53;2.33;;;16.90;99.90;;;;;;5070629;28;20496;-55
2022/10/16 07:15:01;;;;;;;2.80;2.00;;;16.90;99.90;;;;;;5069250;28;20482;-56
2022/10/16 07:17:28;;;;;;;4.73;2.57;;;17.00;99.90;;;;;;5070933;28;20580;-56
2022/10/16 07:19:55;;;;;;;4.83;2.50;;;17.00;99.90;;;;;;5072775;28;20801;-55
2022/10/16 07:22:22;;;;;;;2.97;2.50;;;17.10;99.90;;;;;;5072679;28;20468;-55
2022/10/16 07:24:51;;;;;;;2.53;2.33;;;17.10;99.90;;;;;;5074536;28;20523;-56
2022/10/16 07:27:41;;;;;;;3.60;2.60;;;17.20;99.90;;;;;;5075362;28;20455;-56
2022/10/16 07:30:09;;;;;;;6.27;2.30;;;17.10;99.90;;;;;;5072291;28;20923;-56
2022/10/16 07:32:37;;;;;;;5.17;2.57;;;17.10;99.90;;;;;;5074724;28;20519;-56
2022/10/16 07:35:04;;;;;;;7.93;2.73;;;17.10;99.90;;;;;;5074937;28;20448;-56
2022/10/16 07:37:31;;;;;;;4.70;2.40;;;17.10;99.90;;;;;;5072627;28;20470;-56
2022/10/16 07:40:00;;;;;;;4.33;2.40;;;17.10;99.90;;;;;;5075039;28;20476;-56
2022/10/16 07:42:28;;;;;;;3.37;2.50;;;17.10;99.90;;;;;;5074626;28;20467;-55
2022/10/16 07:44:55;;;;;;;6.40;3.20;;;17.20;99.90;;;;;;5073705;28;20539;-55
2022/10/16 07:47:22;;;;;;;4.33;2.50;;;17.20;99.90;;;;;;5074286;28;20452;-56
2022/10/16 07:49:50;;;;;;;6.90;2.33;;;17.10;99.90;;;;;;5073748;28;20917;-56
2022/10/16 07:52:17;;;;;;;2.40;2.20;;;17.20;99.90;;;;;;5071762;28;20495;-56
2022/10/16 07:54:44;;;;;;;3.60;2.27;;;17.20;99.90;;;;;;5074106;28;20813;-56
2022/10/16 07:57:18;;;;;;;2.50;2.30;;;17.30;99.90;;;;;;5073688;28;20444;-56
2022/10/16 07:59:46;;;;;;;3.20;2.87;;;;;;;;;;5071653;28;20444;-55
2022/10/16 08:02:14;;;;;;;4.30;2.47;;;17.50;99.90;;;;;;5073725;28;20472;-56
2022/10/16 08:04:41;;;;;;;5.93;2.63;;;17.40;99.90;;;;;;5073837;28;20963;-56
2022/10/16 08:07:09;;;;;;;3.87;2.43;;;17.50;99.90;;;;;;5071794;28;20494;-56
2022/10/16 08:09:36;;;;;;;2.77;2.30;;;17.50;99.90;;;;;;5073767;28;20466;-56
2022/10/16 08:12:04;;;;;;;6.03;2.60;;;17.50;99.90;;;;;;5073166;28;21038;-56
2022/10/16 08:14:32;;;;;;;4.03;2.90;;;17.60;99.90;;;;;;5071914;28;21004;-56
2022/10/16 08:17:01;;;;;;;3.70;2.80;;;17.70;99.90;;;;;;5073496;28;20464;-58
2022/10/16 08:19:29;;;;;;;5.00;2.10;;;17.80;99.90;;;;;;5073453;28;20497;-56
2022/10/16 08:21:57;;;;;;;2.60;1.93;;;17.90;99.90;;;;;;5072059;28;20468;-56
2022/10/16 08:24:24;;;;;;;10.30;4.80;;;18.10;99.90;;;;;;5073497;28;20478;-56
2022/10/16 08:26:51;;;;;;;2.70;2.50;;;18.30;99.90;;;;;;5073475;28;21002;-56
2022/10/16 08:29:18;;;;;;;2.80;2.50;;;18.60;99.90;;;;;;5071893;28;20548;-55
2022/10/16 08:31:46;;;;;;;2.47;2.27;;;18.70;99.90;;;;;;5072037;28;20490;-56
2022/10/16 08:34:14;;;;;;;2.63;2.40;;;18.80;99.90;;;;;;5073040;28;20966;-56
2022/10/16 08:36:41;;;;;;;5.43;2.60;;;18.70;99.90;;;;;;5071971;28;20451;-56
2022/10/16 08:39:08;;;;;;;6.63;2.57;;;18.70;99.90;;;;;;5072596;28;20448;-56
2022/10/16 08:41:55;;;;;;;6.10;2.70;;;18.80;99.90;;;;;;5073601;28;20776;-56
2022/10/16 08:44:38;;;;;;;2.37;2.17;;;18.80;99.90;;;;;;5072835;28;20744;-56
2022/10/16 08:47:18;;;;;;;2.67;2.13;;;18.90;99.90;;;;;;5073063;28;20593;-56
2022/10/16 08:49:57;;;;;;;3.10;2.20;;;18.70;99.90;;;;;;5070439;28;20488;-55
2022/10/16 08:52:26;;;;;;;6.47;2.63;;;18.70;99.90;;;;;;5072812;28;20838;-56
2022/10/16 08:54:56;;;;;;;2.60;2.33;;;18.60;99.90;;;;;;5073251;28;20886;-56
2022/10/16 08:57:26;;;;;;;2.90;1.93;;;18.60;99.90;;;;;;5071073;28;20471;-56
2022/10/16 08:59:54;;;;;;;2.67;2.43;;;18.60;99.90;;;;;;5072354;28;20505;-56
2022/10/16 09:02:32;;;;;;;4.43;1.90;;;18.60;99.90;;;;;;5071663;28;20468;-56
2022/10/16 09:05:16;;;;;;;2.20;2.00;;;18.60;99.90;;;;;;5071157;28;20428;-56
2022/10/16 09:07:50;;;;;;;3.97;2.17;;;18.70;99.90;;;;;;5072726;28;20784;-56
2022/10/16 09:10:33;;;;;;;3.00;2.07;;;18.80;99.90;;;;;;5072612;28;20428;-56
2022/10/16 09:13:09;;;;;;;4.20;2.47;;;18.90;99.90;;;;;;5069958;28;20494;-55
2022/10/16 09:15:41;;;;;;;3.27;2.20;;;19.00;99.90;;;;;;5072055;28;20899;-56
2022/10/16 09:18:16;;;;;;;4.90;2.57;;;19.10;99.90;;;;;;5072723;28;20433;-56
2022/10/16 09:20:50;;;;;;;3.50;2.37;;;19.20;99.90;;;;;;5070365;28;20793;-56
2022/10/16 09:23:19;;;;;;;2.50;2.30;;;19.40;99.90;;;;;;5072500;28;20465;-55
2022/10/16 09:25:49;;;;;;;3.30;2.20;;;19.60;99.90;;;;;;5072200;28;20455;-56
2022/10/16 09:28:17;;;;;;;2.70;2.40;;;19.70;99.90;;;;;;5070301;28;20487;-56
2022/10/16 09:30:45;;;;;;;3.90;2.43;;;19.80;99.90;;;;;;5072752;28;20448;-56
2022/10/16 09:33:15;;;;;;;3.30;2.63;;;19.90;99.90;;;;;;5071929;28;20484;-55
2022/10/16 09:35:44;;;;;;;5.20;1.97;;;19.80;99.90;;;;;;5069344;28;20448;-56
2022/10/16 09:38:23;;;;;;;2.97;2.30;;;19.80;99.90;;;;;;5072043;28;20854;-56
2022/10/16 09:40:51;;;;;;;2.73;2.00;;;19.80;99.90;;;;;;5072509;28;20460;-56
2022/10/16 09:43:27;;;;;;;2.70;2.17;;;19.60;99.90;;;;;;5069609;28;20499;-56
2022/10/16 09:45:59;;;;;;;2.40;2.03;;;19.70;99.90;;;;;;5071794;28;20480;-56
2022/10/16 09:48:31;;;;;;;6.40;2.13;;;19.60;99.90;;;;;;5071377;28;20476;-56
2022/10/16 09:51:00;;;;;;;3.07;2.10;;;19.60;99.90;;;;;;5071488;28;20429;-56
2022/10/16 09:53:40;;;;;;;6.27;2.53;;;19.60;99.90;;;;;;5071929;28;20488;-56
2022/10/16 09:56:08;;;;;;;2.87;2.30;;;19.80;99.90;;;;;;5071599;28;20785;-56
2022/10/16 09:58:37;;;;;;;2.20;2.00;;;20.10;99.90;;;;;;5071069;28;20507;-57
2022/10/16 10:01:04;;;;;;;3.50;2.30;;;20.30;99.90;;;;;;5072096;28;20457;-56
2022/10/16 10:03:41;;;;;;;5.97;2.40;;;20.40;99.90;;;;;;5071711;28;20551;-56
2022/10/16 10:06:19;;;;;;;2.33;2.10;;;20.50;99.90;;;;;;5072065;28;20526;-56
2022/10/16 10:09:01;;;;;;;3.60;1.80;;;20.70;99.90;;;;;;5071535;28;20532;-56
2022/10/16 10:11:42;;;;;;;10.23;2.20;;;20.70;99.90;;;;;;5069898;28;20437;-56
2022/10/16 10:14:17;;;;;;;4.67;2.40;;;20.90;99.90;;;;;;5071515;28;20428;-57
2022/10/16 10:16:45;;;;;;;3.43;2.17;;;21.00;99.90;;;;;;5071281;28;20954;-57
2022/10/16 10:19:17;;;;;;;4.90;2.70;;;21.20;99.90;;;;;;5070163;28;20490;-56
2022/10/16 10:21:44;;;;;;;3.60;1.97;;;21.40;99.90;;;;;;5071893;28;20552;-57
2022/10/16 10:24:13;;;;;;;4.37;2.30;;;21.50;99.90;;;;;;5071391;28;20471;-57
2022/10/16 10:26:49;;;;;;;4.73;2.33;;;21.60;99.90;;;;;;5069532;28;20946;-57
2022/10/16 10:29:27;;;;;;;3.67;2.03;;;21.80;99.90;;;;;;5071292;28;20523;-56
2022/10/16 10:32:04;;;;;;;4.50;2.23;;;21.80;99.90;;;;;;5071103;28;21095;-56
2022/10/16 10:35:04;;;;;;;2.60;2.40;;;22.00;99.90;;;;;;5069852;28;20429;-57
2022/10/16 10:37:46;;;;;;;7.40;2.27;;;22.50;99.90;;;;;;5070938;28;20429;-56
2022/10/16 10:40:30;;;;;;;4.80;2.10;;;22.90;99.90;;;;;;5070512;28;20436;-56
2022/10/16 10:43:05;;;;;;;2.60;1.80;;;23.10;99.90;;;;;;5069124;28;20456;-57
2022/10/16 10:45:43;;;;;;;5.87;2.23;;;23.00;99.90;;;;;;5071535;28;20428;-56
2022/10/16 10:48:29;;;;;;;4.73;3.70;;;23.30;99.90;;;;;;5069416;28;20484;-56
2022/10/16 10:51:02;;;;;;;3.17;1.90;;;23.50;99.90;;;;;;5071094;28;20919;-57
2022/10/16 10:53:41;;;;;;;1.90;1.80;;;24.00;99.90;;;;;;5071125;28;20570;-57
2022/10/16 10:56:25;;;;;;;2.53;2.07;;;25.00;99.90;;;;;;5072927;28;20952;-57
2022/10/16 10:59:03;;;;;;;2.33;2.13;;;25.20;99.90;;;;;;5075062;28;20428;-57
2022/10/16 11:01:40;;;;;;;3.00;2.50;;;25.30;99.90;;;;;;5075437;28;20470;-57
2022/10/16 11:04:44;;;;;;;2.63;2.40;;;24.90;99.90;;;;;;5072754;28;20421;-57
2022/10/16 11:07:19;;;;;;;3.50;2.80;;;25.30;99.90;;;;;;5056929;28;20535;-57
2022/10/16 11:09:49;;;;;;;5.00;2.53;;;25.10;99.90;;;;;;5075191;28;20443;-57
2022/10/16 11:12:21;;;;;;;4.40;2.63;;;25.00;99.90;;;;;;5074540;28;20484;-57
2022/10/16 11:14:55;;;;;;;3.30;2.97;;;24.40;99.90;;;;;;5074245;28;20428;-57
2022/10/16 11:17:28;;;;;;;3.63;2.27;;;24.40;99.90;;;;;;5074779;28;20546;-52
2022/10/16 11:20:01;;;;;;;4.63;2.27;;;24.70;99.90;;;;;;5083906;28;20463;-51
2022/10/16 11:22:35;;;;;;;3.83;2.10;;;24.60;99.90;;;;;;5094095;28;20494;-53
2022/10/16 11:25:08;;;;;;;4.30;2.20;;;24.50;99.90;;;;;;5086980;28;20459;-55
2022/10/16 11:27:41;;;;;;;12.57;2.40;;;25.00;99.90;;;;;;5074168;28;20527;-56
2022/10/16 11:30:17;;;;;;;5.73;2.17;;;26.00;99.90;;;;;;5074441;28;20425;-53
2022/10/16 11:32:57;;;;;;;2.73;1.93;;;26.20;99.90;;;;;;5073210;28;20864;-52
2022/10/16 11:35:33;;;;;;;1.90;1.70;;;26.40;99.90;;;;;;5074139;28;20428;-58
2022/10/16 11:38:08;;;;;;;2.20;2.00;;;26.10;99.90;;;;;;5074513;28;20464;-56
2022/10/16 11:40:41;;;;;;;6.13;2.17;;;25.90;99.90;;;;;;5073192;28;20469;-56
2022/10/16 11:43:14;;;;;;;2.97;2.23;;;25.70;99.90;;;;;;5073589;28;21015;-55
2022/10/16 11:45:45;;;;;;;5.00;2.50;;;26.00;99.90;;;;;;5075322;28;20435;-61
2022/10/16 11:48:24;;;;;;;6.93;2.73;;;26.50;99.90;;;;;;5076824;28;20563;-55
2022/10/16 11:50:54;;;;;;;2.63;2.43;;;27.30;99.90;;;;;;5088486;28;20437;-57
2022/10/16 11:53:29;;;;;;;2.50;2.17;;;;;;;;;;5082180;28;20564;-56
2022/10/16 11:55:56;;;;;;;3.60;1.83;;;28.30;99.90;;;;;;5093665;28;20921;-65
2022/10/16 11:58:28;;;;;;;2.80;1.77;;;28.20;99.90;;;;;;5094568;28;20451;-57
2022/10/16 12:01:06;;;;;;;5.33;2.60;;;28.30;99.90;;;;;;5092853;28;20444;-57
2022/10/16 12:03:38;;;;;;;6.33;2.30;;;28.20;99.90;;;;;;5093398;28;20466;-56
2022/10/16 12:06:18;;;;;;;2.80;2.03;;;28.80;99.90;;;;;;5093648;28;20497;-58
2022/10/16 12:08:47;;;;;;;3.00;2.13;;;28.20;99.90;;;;;;5073109;28;20455;-55
2022/10/16 12:11:25;;;;;;;3.80;2.10;;;28.00;99.90;;;;;;5074269;28;20447;-55
2022/10/16 12:13:53;;;;;;;1.90;1.60;;;27.60;99.90;;;;;;5073194;28;20468;-48
2022/10/16 12:16:24;;;;;;;7.70;1.90;;;27.10;99.90;;;;;;5072278;28;20539;-48
2022/10/16 12:19:10;;;;;;;2.13;1.93;;;26.60;99.90;;;;;;5084862;28;20446;-48
2022/10/16 12:21:37;;;;;;;5.93;5.43;;;26.10;99.90;;;;;;5094113;28;20449;-53
2022/10/16 12:24:07;;;;;;;2.00;1.87;;;25.80;99.90;;;;;;5091354;28;20443;-56
2022/10/16 12:26:38;;;;;;;2.10;2.00;;;25.70;99.90;;;;;;5094326;28;20444;-51
2022/10/16 12:29:22;;;;;;;2.23;2.00;;;25.50;99.90;;;;;;5094041;28;20435;-57
2022/10/16 12:31:51;;;;;;;2.20;2.00;;;25.90;99.90;;;;;;5093743;28;20450;-58
2022/10/16 12:34:24;;;;;;;3.70;2.00;;;25.90;99.90;;;;;;5093585;28;20459;-59
2022/10/16 12:36:52;;;;;;;3.00;2.07;;;25.90;99.90;;;;;;5094392;28;20432;-55
2022/10/16 12:39:24;;;;;;;7.63;2.73;;;25.50;99.90;;;;;;5092882;28;20470;-54
2022/10/16 12:42:03;;;;;;;4.70;1.70;;;25.30;99.90;;;;;;5094449;28;20470;-56
2022/10/16 12:44:34;;;;;;;3.00;1.77;;;25.60;99.90;;;;;;5093588;28;20445;-57
2022/10/16 12:47:02;;;;;;;3.23;2.47;;;26.00;99.90;;;;;;5093363;28;20459;-57
2022/10/16 12:49:37;;;;;;;5.40;2.27;;;25.80;99.90;;;;;;5078296;28;20971;-55
2022/10/16 12:52:05;;;;;;;3.43;3.13;;;25.60;99.90;;;;;;5088875;28;20459;-54
2022/10/16 12:54:37;;;;;;;5.50;2.53;;;25.50;99.90;;;;;;5092168;28;20483;-56
2022/10/16 12:57:27;;;;;;;2.40;2.20;;;25.70;99.90;;;;;;5093757;28;20425;-59
2022/10/16 13:00:02;;;;;;;2.60;1.90;;;25.70;99.90;;;;;;5093622;28;20435;-64
2022/10/16 13:02:51;;;;;;;5.10;2.20;;;25.40;99.90;;;;;;5093667;28;20463;-59
2022/10/16 13:05:36;;;;;;;2.37;2.00;;;25.00;99.90;;;;;;5093225;28;20423;-55